Time;durP1;ratioP1;P1;durP2;ratioP2;P2;SDS_P1;SDS_P2;PMS_P1;PMS_P2;Temp;Humidity;BMP_temperature;BMP_pressure;BME280_temperature;BME280_humidity;BME280_pressure;Samples;Min_cycle;Max_cycle;Signal;HPM_P1;HPM_P2
2022/05/06 00:01:57;;;;;;;23.90;17.33;;;;;;;13.11;77.83;99576.09;2623043;54;20033;-64
2022/05/06 00:04:26;;;;;;;24.42;18.02;;;;;;;13.10;77.84;99570.97;2623135;54;20080;-64
2022/05/06 00:06:56;;;;;;;24.27;16.83;;;;;;;13.12;77.74;99574.25;2622003;54;20034;-63
2022/05/06 00:09:26;;;;;;;24.63;18.42;;;;;;;13.09;78.03;99571.97;2622904;54;20591;-63
2022/05/06 00:11:55;;;;;;;23.10;17.90;;;;;;;12.99;77.92;99567.00;2623726;54;20026;-63
2022/05/06 00:14:28;;;;;;;24.80;18.23;;;;;;;12.98;77.99;99572.47;2623683;54;20033;-63
2022/05/06 00:16:57;;;;;;;22.00;16.48;;;;;;;12.97;78.33;99574.31;2624557;54;20026;-63
2022/05/06 00:19:27;;;;;;;25.60;16.85;;;;;;;12.99;78.04;99576.78;2624404;54;20045;-63
2022/05/06 00:21:56;;;;;;;21.75;16.20;;;;;;;13.01;77.98;99577.41;2624281;54;20034;-62
2022/05/06 00:24:28;;;;;;;21.40;16.73;;;;;;;13.03;78.24;99570.91;2624767;54;20037;-63
2022/05/06 00:26:58;;;;;;;23.23;16.95;;;;;;;13.03;78.23;99573.56;2623567;54;20033;-63
2022/05/06 00:29:31;;;;;;;24.15;16.38;;;;;;;13.03;77.76;99575.41;2623656;54;20530;-63
2022/05/06 00:32:01;;;;;;;20.73;16.20;;;;;;;13.04;77.97;99585.81;2624176;54;20033;-63
2022/05/06 00:34:31;;;;;;;21.48;16.85;;;;;;;13.05;78.24;99576.84;2622867;54;20050;-64
2022/05/06 00:37:00;;;;;;;21.67;17.02;;;;;;;13.05;77.68;99581.34;2622505;54;20283;-64
2022/05/06 00:39:30;;;;;;;24.63;16.02;;;;;;;13.05;77.67;99578.69;2622721;54;20034;-64
2022/05/06 00:41:59;;;;;;;22.17;16.50;;;;;;;13.04;77.56;99575.19;2622445;47;20031;-64
2022/05/06 00:44:32;;;;;;;20.60;16.60;;;;;;;13.04;77.79;99574.38;2623036;54;20038;-63
2022/05/06 00:47:02;;;;;;;24.75;17.83;;;;;;;13.03;77.51;99573.56;2622715;54;20049;-63
2022/05/06 00:49:32;;;;;;;20.40;16.85;;;;;;;12.99;77.99;99574.13;2623035;54;20042;-63
2022/05/06 00:52:03;;;;;;;25.85;16.63;;;;;;;13.00;77.77;99575.78;2622853;53;20031;-64
2022/05/06 00:54:34;;;;;;;23.13;17.08;;;;;;;12.98;77.87;99575.97;2622400;47;20037;-64
2022/05/06 00:57:04;;;;;;;25.00;16.58;;;;;;;13.01;77.95;99566.78;2623250;39;20420;-63
2022/05/06 01:00:17;;;;;;;24.15;16.13;;;;;;;13.03;77.94;99568.25;2622728;54;20130;-63
2022/05/06 01:02:27;;;;;;;21.38;15.75;;;;;;;13.03;77.74;99572.75;2623324;54;20034;-63
2022/05/06 01:05:02;;;;;;;22.20;17.02;;;;;;;13.02;77.68;99571.09;2623099;54;20033;-63
2022/05/06 01:07:32;;;;;;;20.95;15.63;;;;;;;12.93;77.82;99567.72;2622890;54;20090;-63
2022/05/06 01:10:02;;;;;;;21.92;16.70;;;;;;;12.96;78.19;99572.69;2622517;47;20122;-63
2022/05/06 01:12:33;;;;;;;20.60;15.80;;;;;;;12.96;77.94;99567.38;2622410;54;20023;-63
2022/05/06 01:15:22;;;;;;;20.63;15.73;;;;;;;12.98;78.32;99570.66;2621123;54;20578;-63
2022/05/06 01:18:03;;;;;;;23.05;16.30;;;;;;;12.98;77.91;99570.66;2621003;54;20069;-62
2022/05/06 01:20:36;;;;;;;18.20;15.23;;;;;;;12.95;78.07;99565.72;2622291;54;20035;-62
2022/05/06 01:23:09;;;;;;;28.27;17.05;;;;;;;12.96;78.15;99566.56;2621481;54;20035;-63
2022/05/06 01:25:38;;;;;;;20.13;15.55;;;;;;;12.94;78.54;99571.22;2622426;54;20043;-63
2022/05/06 01:28:09;;;;;;;22.35;16.00;;;;;;;12.96;78.48;99570.03;2621702;46;20033;-61
2022/05/06 01:30:42;;;;;;;23.42;16.17;;;;;;;12.96;78.10;99570.03;2622030;54;20038;-63
2022/05/06 01:33:14;;;;;;;21.30;16.45;;;;;;;12.98;78.17;99578.63;2621144;54;20025;-61
2022/05/06 01:35:46;;;;;;;21.13;16.80;;;;;;;12.99;77.99;99576.78;2621511;54;20027;-62
2022/05/06 01:38:25;;;;;;;22.10;16.70;;;;;;;12.99;77.74;99574.97;2621832;54;20053;-62
2022/05/06 01:40:59;;;;;;;20.23;16.60;;;;;;;12.92;78.20;99575.91;2621758;54;20030;-63
2022/05/06 01:43:42;;;;;;;22.08;16.30;;;;;;;12.92;77.93;99574.06;2622133;54;20073;-63
2022/05/06 01:46:15;;;;;;;19.83;14.95;;;;;;;12.91;78.35;99571.59;2623702;39;20514;-62
2022/05/06 01:48:54;;;;;;;20.40;16.02;;;;;;;12.84;78.56;99577.66;2622026;47;20038;-62
2022/05/06 01:51:29;;;;;;;23.08;17.10;;;;;;;12.83;78.65;99569.88;2622994;54;20558;-63
2022/05/06 01:54:04;;;;;;;22.25;15.48;;;;;;;12.82;78.35;99568.25;2622434;54;20037;-63
2022/05/06 01:56:36;;;;;;;22.80;16.05;;;;;;;12.77;78.45;99571.44;2623170;54;20030;-62
2022/05/06 01:59:05;;;;;;;19.27;15.30;;;;;;;12.75;78.86;99567.34;2623511;54;20050;-63
2022/05/06 02:01:35;;;;;;;23.70;16.38;;;;;;;12.77;78.86;99562.66;2622150;54;20039;-62
2022/05/06 02:06:49;;;;;;;26.02;16.17;;;;;;;12.81;78.66;99567.41;2622648;47;20030;-65
2022/05/06 02:09:25;;;;;;;19.58;14.93;;;;;;;12.79;78.76;99563.31;2622685;51;20022;-63
2022/05/06 02:12:02;;;;;;;21.35;15.57;;;;;;;12.80;78.49;99560.47;2623277;54;20030;-63
2022/05/06 02:14:54;;;;;;;21.52;16.85;;;;;;;12.80;78.62;99560.47;2623485;47;20599;-63
2022/05/06 02:17:41;;;;;;;23.15;16.90;;;;;;;12.78;78.47;99553.72;2622482;47;20038;-63
2022/05/06 02:20:23;;;;;;;25.20;16.45;;;;;;;12.79;78.13;99560.66;2622777;54;20030;-63
2022/05/06 02:23:11;;;;;;;21.73;15.65;;;;;;;12.80;78.57;99552.50;2622756;39;20580;-63
2022/05/06 02:25:50;;;;;;;19.58;15.18;;;;;;;12.78;78.27;99565.16;2622322;47;20121;-63
2022/05/06 02:28:28;;;;;;;22.63;16.80;;;;;;;12.77;78.14;99552.06;2620852;54;20034;-62
2022/05/06 02:33:53;;;;;;;18.25;14.35;;;;;;;12.69;78.03;99565.44;2623675;39;20445;-62
2022/05/06 02:36:26;;;;;;;19.35;14.80;;;;;;;12.68;78.38;99559.31;2621723;52;20037;-64
2022/05/06 02:38:56;;;;;;;18.85;15.13;;;;;;;12.62;78.53;99560.09;2621431;47;20049;-64
2022/05/06 02:41:29;;;;;;;20.05;16.52;;;;;;;12.53;78.31;99569.13;2621712;54;20038;-62
2022/05/06 02:43:59;;;;;;;21.50;15.88;;;;;;;12.47;78.33;99565.41;2621794;54;20034;-63
2022/05/06 02:46:34;;;;;;;19.85;16.05;;;;;;;12.45;78.50;99569.25;2624387;31;20594;-63
2022/05/06 02:49:03;;;;;;;23.58;15.85;;;;;;;12.42;78.34;99570.47;2623026;54;20034;-64
2022/05/06 02:51:34;;;;;;;20.70;14.75;;;;;;;12.42;78.40;99572.28;2622868;47;20538;-63
2022/05/06 02:54:07;;;;;;;21.58;15.52;;;;;;;12.44;78.90;99571.06;2623071;47;20034;-62
2022/05/06 02:56:42;;;;;;;21.60;16.15;;;;;;;12.43;78.81;99571.28;2623269;51;20023;-63
2022/05/06 02:59:13;;;;;;;21.73;15.75;;;;;;;12.38;78.67;99572.66;2622729;54;20173;-63
2022/05/06 03:01:43;;;;;;;22.25;14.93;;;;;;;12.38;78.81;99569.19;2624333;54;20030;-63
2022/05/06 03:04:14;;;;;;;19.65;14.82;;;;;;;12.40;78.36;99565.31;2623689;39;20521;-63
2022/05/06 03:06:46;;;;;;;19.75;15.07;;;;;;;12.33;78.71;99563.63;2621754;54;20027;-63
2022/05/06 03:09:30;;;;;;;20.75;14.90;;;;;;;12.34;78.63;99563.44;2622054;47;20077;-64
2022/05/06 03:12:02;;;;;;;16.83;13.77;;;;;;;12.37;78.70;99565.72;2622592;54;20081;-65
2022/05/06 03:14:34;;;;;;;20.65;16.52;;;;;;;12.38;78.49;99569.19;2623526;54;20030;-62
2022/05/06 03:17:15;;;;;;;21.60;16.15;;;;;;;12.23;78.37;99566.53;2622778;54;20040;-63
2022/05/06 03:19:45;;;;;;;24.50;16.48;;;;;;;12.06;78.67;99565.09;2624418;39;20422;-62
2022/05/06 03:22:18;;;;;;;23.13;16.52;;;;;;;11.95;79.26;99566.38;2624386;54;20534;-63
2022/05/06 03:24:48;;;;;;;22.92;15.75;;;;;;;11.80;79.55;99569.00;2623125;47;20137;-62
2022/05/06 03:30:03;;;;;;;20.40;15.68;;;;;;;11.79;80.04;99571.81;2622605;54;20095;-62
2022/05/06 03:32:35;;;;;;;26.17;17.80;;;;;;;11.72;79.68;99563.78;2621899;54;20029;-62
2022/05/06 03:35:07;;;;;;;23.35;16.27;;;;;;;11.63;79.68;99565.69;2625232;39;20522;-63
2022/05/06 03:37:40;;;;;;;21.85;17.40;;;;;;;11.56;80.37;99566.59;2624117;39;20688;-62
2022/05/06 03:40:14;;;;;;;19.52;16.35;;;;;;;11.52;80.29;99563.47;2621891;47;20158;-63
2022/05/06 03:42:48;;;;;;;;;;;;;;;11.52;80.78;99565.31;2621553;54;20045;-62
2022/05/06 03:45:19;;;;;;;21.52;15.73;;;;;;;11.55;80.63;99567.56;2620626;47;19985;-62
2022/05/06 03:47:50;;;;;;;19.52;15.20;;;;;;;11.51;80.54;99571.59;2623476;46;20030;-63
2022/05/06 03:53:03;;;;;;;24.67;15.95;;;;;;;11.39;80.66;99576.50;2624250;39;20449;-63
2022/05/06 03:55:33;;;;;;;21.02;17.08;;;;;;;11.38;80.63;99572.19;2624019;47;20057;-63
2022/05/06 03:58:06;;;;;;;19.65;15.65;;;;;;;11.31;80.81;99576.59;2623763;46;20046;-63
2022/05/06 04:00:35;;;;;;;19.02;15.00;;;;;;;11.27;80.69;99573.47;2624381;54;20026;-63
2022/05/06 04:03:10;;;;;;;19.77;15.98;;;;;;;11.31;81.21;99571.28;2624058;47;20027;-62
2022/05/06 04:05:41;;;;;;;22.08;16.70;;;;;;;11.32;81.01;99576.38;2626825;31;20499;-63
2022/05/06 04:08:12;;;;;;;18.38;14.98;;;;;;;11.31;80.38;99574.75;2624001;46;20035;-63
2022/05/06 04:10:44;;;;;;;21.63;16.50;;;;;;;11.30;80.39;99567.78;2624081;47;20029;-62
2022/05/06 04:13:18;;;;;;;17.55;14.90;;;;;;;11.27;80.47;99572.66;2625029;54;20077;-63
2022/05/06 04:15:50;;;;;;;19.65;14.98;;;;;;;11.19;80.51;99581.47;2624319;47;20065;-63
2022/05/06 04:18:21;;;;;;;20.30;15.45;;;;;;;11.12;80.35;99588.47;2622990;54;20027;-63
2022/05/06 04:23:38;;;;;;;16.80;13.70;;;;;;;11.04;80.99;99593.81;2623219;54;20053;-63
2022/05/06 04:26:14;;;;;;;17.73;13.98;;;;;;;11.11;80.69;99597.41;2623224;54;20122;-64
2022/05/06 04:28:56;;;;;;;20.27;14.50;;;;;;;11.20;80.35;99595.53;2623083;46;20038;-63
2022/05/06 04:31:27;;;;;;;17.13;13.17;;;;;;;11.26;79.95;99592.97;2622213;54;20562;-64
2022/05/06 04:34:02;;;;;;;18.75;14.52;;;;;;;11.30;79.76;99604.03;2622256;54;20279;-63
2022/05/06 04:36:40;;;;;;;22.05;14.80;;;;;;;11.34;79.14;99608.78;2623888;54;20081;-62
2022/05/06 04:39:11;;;;;;;16.83;13.73;;;;;;;11.31;79.25;99606.53;2624109;47;20042;-63
2022/05/06 04:41:49;;;;;;;17.80;13.75;;;;;;;11.28;79.06;99606.03;2624928;54;20038;-64
2022/05/06 04:44:29;;;;;;;17.13;12.73;;;;;;;11.29;78.86;99611.16;2623946;54;20034;-61
2022/05/06 04:46:59;;;;;;;20.90;14.02;;;;;;;11.27;78.74;99612.34;2622402;54;20082;-63
2022/05/06 04:49:30;;;;;;;30.00;18.88;;;;;;;11.24;78.57;99613.50;2624069;54;20033;-65
2022/05/06 04:52:00;;;;;;;23.10;17.85;;;;;;;11.12;78.90;99620.22;2624037;54;20030;-63
2022/05/06 04:54:30;;;;;;;20.23;16.55;;;;;;;11.04;78.83;99621.09;2624314;47;20056;-64
2022/05/06 04:57:02;;;;;;;23.17;18.48;;;;;;;11.04;79.40;99621.09;2623913;54;20069;-63
2022/05/06 04:59:39;;;;;;;14.13;12.40;;;;;;;11.01;79.29;99623.25;2622332;39;20533;-66
2022/05/06 05:02:09;;;;;;;14.63;12.25;;;;;;;11.05;79.73;99630.66;2622969;54;20028;-64
2022/05/06 05:04:39;;;;;;;15.43;13.23;;;;;;;11.02;79.18;99627.53;2625606;39;20522;-64
2022/05/06 05:07:14;;;;;;;19.88;14.80;;;;;;;11.01;79.25;99634.66;2623471;47;20027;-63
2022/05/06 05:09:53;;;;;;;19.13;15.05;;;;;;;11.07;79.71;99636.63;2621637;54;20038;-65
2022/05/06 05:12:25;;;;;;;16.65;14.00;;;;;;;11.04;79.68;99636.16;2623093;54;20030;-64
2022/05/06 05:14:59;;;;;;;19.15;14.77;;;;;;;11.22;80.17;99641.97;2624338;54;20034;-63
2022/05/06 05:17:33;;;;;;;20.00;15.60;;;;;;;11.31;79.33;99640.09;2623243;47;20062;-64
2022/05/06 05:20:03;;;;;;;23.13;14.70;;;;;;;11.23;78.53;99635.69;2622541;54;20899;-63
2022/05/06 05:22:38;;;;;;;21.50;16.35;;;;;;;11.28;79.24;99638.63;2622040;47;20034;-64
2022/05/06 05:25:12;;;;;;;30.10;16.55;;;;;;;11.35;78.87;99639.56;2622449;47;20034;-64
2022/05/06 05:27:44;;;;;;;23.85;16.55;;;;;;;11.40;79.63;99645.16;2623852;47;20030;-63
2022/05/06 05:30:26;;;;;;;22.48;15.90;;;;;;;11.49;79.08;99642.44;2625567;47;20031;-63
2022/05/06 05:32:57;;;;;;;24.02;16.33;;;;;;;11.56;79.61;99657.44;2626964;54;20034;-63
2022/05/06 05:35:29;;;;;;;24.58;15.45;;;;;;;11.68;79.39;99649.09;2626687;47;20038;-63
2022/05/06 05:38:03;;;;;;;22.40;17.27;;;;;;;11.73;78.98;99644.88;2624857;54;20018;-63
2022/05/06 05:40:34;;;;;;;18.98;15.50;;;;;;;11.65;78.60;99648.41;2624066;54;20106;-64
2022/05/06 05:48:19;;;;;;;26.40;18.08;;;;;;;11.65;78.42;99648.41;2623188;54;20030;-63
2022/05/06 05:48:43;;;;;;;31.65;19.33;;;;;;;11.68;78.75;99647.25;2621376;47;20034;-63
2022/05/06 05:51:13;;;;;;;29.70;18.67;;;;;;;11.78;78.58;99647.81;2620620;54;20022;-62
2022/05/06 05:53:51;;;;;;;26.70;19.50;;;;;;;11.77;78.29;99648.00;2621016;54;20034;-63
2022/05/06 05:56:21;;;;;;;23.27;19.23;;;;;;;11.75;78.21;99653.47;2621524;54;20049;-63
2022/05/06 05:58:51;;;;;;;18.98;15.35;;;;;;;11.76;78.40;99652.47;2621387;51;20035;-63
2022/05/06 06:01:27;;;;;;;17.87;15.97;;;;;;;11.84;77.93;99662.22;2622126;51;20037;-64
2022/05/06 06:04:00;;;;;;;18.58;16.13;;;;;;;11.86;77.76;99655.72;2621767;47;20018;-66
2022/05/06 06:06:39;;;;;;;21.20;17.02;;;;;;;11.99;78.01;99662.22;2621783;47;20031;-65
2022/05/06 06:09:10;;;;;;;17.58;14.82;;;;;;;12.02;77.83;99662.69;2621810;47;20023;-64
2022/05/06 06:11:40;;;;;;;20.98;16.63;;;;;;;12.06;77.50;99660.50;2622699;54;20030;-63
2022/05/06 06:14:12;;;;;;;15.35;13.60;;;;;;;12.02;77.47;99657.38;2622828;54;20023;-64
2022/05/06 06:16:44;;;;;;;18.85;15.95;;;;;;;12.04;77.40;99652.75;2622453;54;20538;-64
2022/05/06 06:19:15;;;;;;;17.85;14.63;;;;;;;12.02;76.86;99660.03;2622022;47;20026;-63
2022/05/06 06:21:47;;;;;;;17.27;13.57;;;;;;;11.96;77.31;99658.13;2621173;39;20465;-62
2022/05/06 06:24:21;;;;;;;20.17;15.07;;;;;;;12.11;77.77;99660.78;2620311;39;20437;-62
2022/05/06 06:26:55;;;;;;;18.30;15.40;;;;;;;12.27;77.41;99660.59;2619262;47;20034;-63
2022/05/06 06:29:29;;;;;;;15.90;13.15;;;;;;;12.33;76.40;99656.41;2621523;54;20141;-64
2022/05/06 06:32:03;;;;;;;17.70;13.13;;;;;;;12.39;76.66;99667.09;2622559;47;20069;-65
2022/05/06 06:34:32;;;;;;;16.63;13.85;;;;;;;12.52;76.47;99655.00;2623190;54;20122;-64
2022/05/06 06:37:03;;;;;;;19.92;16.42;;;;;;;12.61;74.54;99656.56;2622510;47;20030;-63
2022/05/06 06:39:34;;;;;;;19.00;16.42;;;;;;;12.52;74.47;99653.19;2619613;54;20033;-64
2022/05/06 06:42:04;;;;;;;23.65;16.23;;;;;;;12.56;74.45;99653.63;2617698;47;20031;-66
2022/05/06 06:44:43;;;;;;;18.42;14.55;;;;;;;12.52;74.24;99650.53;2617597;54;20027;-66
2022/05/06 06:47:34;;;;;;;19.40;14.52;;;;;;;12.66;74.42;99653.38;2617850;54;20045;-64
2022/05/06 06:50:30;;;;;;;14.80;12.82;;;;;;;12.80;74.16;99653.31;2617596;54;20133;-64
2022/05/06 06:53:20;;;;;;;17.33;14.25;;;;;;;12.96;74.01;99654.94;2618698;39;20415;-62
2022/05/06 06:55:50;;;;;;;15.27;11.32;;;;;;;13.04;73.75;99654.00;2618260;54;20045;-63
2022/05/06 06:58:19;;;;;;;14.55;12.32;;;;;;;13.14;73.71;99646.56;2617961;54;20054;-63
2022/05/06 07:00:49;;;;;;;14.65;12.13;;;;;;;13.28;73.58;99653.69;2618333;54;20033;-63
2022/05/06 07:03:22;;;;;;;12.95;10.13;;;;;;;13.40;72.56;99651.34;2618144;39;20454;-64
2022/05/06 07:13:59;;;;;;;15.00;10.80;;;;;;;13.68;70.71;99658.56;2618651;54;20023;-64
2022/05/06 07:16:29;;;;;;;14.27;9.73;;;;;;;13.66;70.03;99652.59;2618044;54;20026;-65
2022/05/06 07:19:01;;;;;;;12.38;10.55;;;;;;;13.61;70.08;99663.78;2617606;54;20034;-65
2022/05/06 07:21:31;;;;;;;11.93;9.65;;;;;;;13.66;70.40;99657.91;2617473;54;20576;-64
2022/05/06 07:24:01;;;;;;;14.43;10.68;;;;;;;13.80;70.13;99662.34;2617980;54;20045;-65
2022/05/06 07:26:30;;;;;;;14.43;9.15;;;;;;;13.88;69.26;99659.53;2617945;54;20038;-66
2022/05/06 07:29:01;;;;;;;11.45;8.45;;;;;;;13.98;69.32;99653.88;2617010;54;20037;-64
2022/05/06 07:31:31;;;;;;;11.32;8.63;;;;;;;14.13;68.92;99655.41;2618054;54;20041;-66
2022/05/06 07:34:03;;;;;;;10.38;8.73;;;;;;;14.22;67.96;99653.41;2618206;54;20181;-64
2022/05/06 07:36:33;;;;;;;13.00;8.63;;;;;;;14.24;67.79;99654.03;2617982;54;20046;-66
2022/05/06 07:39:02;;;;;;;11.50;7.65;;;;;;;14.37;68.17;99648.00;2617040;54;20030;-64
2022/05/06 07:41:32;;;;;;;11.88;8.70;;;;;;;14.47;68.00;99652.94;2618122;54;20027;-64
2022/05/06 07:44:01;;;;;;;10.93;7.80;;;;;;;14.61;67.10;99655.50;2617954;54;20034;-65
2022/05/06 07:46:31;;;;;;;7.43;5.10;;;;;;;14.72;64.24;99651.44;2617540;47;20034;-65
2022/05/06 07:49:04;;;;;;;7.22;5.35;;;;;;;14.89;61.79;99648.44;2617530;54;20034;-65
2022/05/06 07:51:34;;;;;;;8.10;4.88;;;;;;;14.97;60.27;99648.25;2618446;54;20026;-63
2022/05/06 07:54:04;;;;;;;8.82;5.63;;;;;;;15.04;61.31;99649.91;2618555;54;20023;-63
2022/05/06 07:56:34;;;;;;;8.25;4.63;;;;;;;15.12;60.96;99648.91;2618515;54;20036;-65
2022/05/06 07:59:04;;;;;;;6.70;4.70;;;;;;;15.18;59.34;99653.41;2618108;54;20035;-65
2022/05/06 08:07:01;;;;;;;7.85;5.57;;;;;;;15.53;57.72;99645.28;2619222;54;20030;-65
2022/05/06 08:09:31;;;;;;;9.27;5.07;;;;;;;15.61;57.50;99647.75;2619160;54;20053;-65
2022/05/06 08:12:00;;;;;;;5.38;4.53;;;;;;;15.70;55.50;99643.88;2619340;54;20081;-63
2022/05/06 08:14:31;;;;;;;6.68;4.88;;;;;;;15.76;54.60;99647.59;2618944;54;20122;-64
2022/05/06 08:17:01;;;;;;;9.20;5.18;;;;;;;15.80;54.64;99643.50;2618306;39;20410;-64
2022/05/06 08:19:33;;;;;;;9.02;4.78;;;;;;;15.83;54.71;99649.19;2620247;54;20040;-66
2022/05/06 08:22:03;;;;;;;10.40;5.22;;;;;;;15.90;53.79;99651.88;2622850;54;20030;-64
2022/05/06 08:24:33;;;;;;;7.78;4.78;;;;;;;15.99;54.18;99649.81;2620601;54;20046;-63
2022/05/06 08:27:03;;;;;;;8.82;5.22;;;;;;;16.09;53.10;99655.56;2618609;54;20030;-64
2022/05/06 08:29:33;;;;;;;5.88;4.30;;;;;;;16.03;53.72;99653.72;2618590;54;20045;-63
2022/05/06 08:32:03;;;;;;;6.43;4.65;;;;;;;16.18;52.62;99648.16;2618559;54;20041;-62
2022/05/06 08:34:35;;;;;;;6.72;4.47;;;;;;;16.28;51.90;99648.53;2618802;54;20039;-64
2022/05/06 08:37:06;;;;;;;5.55;3.85;;;;;;;16.31;51.50;99648.13;2618567;54;20034;-63
2022/05/06 08:39:35;;;;;;;6.35;4.30;;;;;;;16.35;50.03;99644.00;2618798;54;20034;-63
2022/05/06 08:42:08;;;;;;;6.93;3.85;;;;;;;16.49;49.49;99647.44;2618667;54;20043;-63
2022/05/06 08:52:47;;;;;;;8.38;4.93;;;;;;;17.03;46.12;99646.22;2619316;54;20043;-66
2022/05/06 08:55:18;;;;;;;12.20;4.88;;;;;;;16.95;46.54;99649.97;2623805;54;20034;-63
2022/05/06 08:57:48;;;;;;;9.57;5.28;;;;;;;17.07;46.03;99644.78;2621168;54;20057;-64
2022/05/06 09:00:18;;;;;;;8.38;4.22;;;;;;;17.18;46.22;99656.63;2620319;54;20042;-64
2022/05/06 09:02:47;;;;;;;7.00;4.43;;;;;;;17.25;45.07;99652.06;2619280;54;20030;-64
2022/05/06 09:05:22;;;;;;;7.22;4.15;;;;;;;17.33;46.03;99639.25;2618955;54;20038;-63
2022/05/06 09:07:59;;;;;;;7.15;4.50;;;;;;;17.46;44.99;99641.00;2618723;54;20045;-64
2022/05/06 09:10:29;;;;;;;8.07;5.03;;;;;;;17.51;44.95;99643.88;2618700;54;20046;-65
2022/05/06 09:13:01;;;;;;;6.25;3.40;;;;;;;17.61;43.77;99640.69;2618571;54;20034;-64
2022/05/06 09:18:22;;;;;;;5.78;2.90;;;;;;;17.64;43.30;99642.94;2618247;54;20042;-64
2022/05/06 09:21:13;;;;;;;7.65;3.50;;;;;;;17.83;42.18;99641.16;2619668;54;20039;-65
2022/05/06 09:23:42;;;;;;;4.28;2.45;;;;;;;17.91;39.30;99645.41;2618801;54;20582;-63
2022/05/06 09:26:19;;;;;;;4.88;2.55;;;;;;;17.92;39.09;99647.88;2618688;54;20546;-63
2022/05/06 09:28:49;;;;;;;4.90;2.78;;;;;;;18.00;39.85;99647.59;2618819;54;20031;-64
2022/05/06 09:31:19;;;;;;;7.45;2.85;;;;;;;18.12;39.75;99652.22;2619877;54;20038;-64
2022/05/06 09:33:48;;;;;;;6.10;2.80;;;;;;;18.11;38.72;99654.06;2620426;54;20037;-64
2022/05/06 09:36:29;;;;;;;3.40;2.33;;;;;;;18.07;39.19;99655.56;2619608;54;20108;-66
2022/05/06 09:39:06;;;;;;;3.40;2.20;;;;;;;18.26;37.73;99648.38;2620201;54;20069;-64
2022/05/06 09:41:39;;;;;;;5.97;2.20;;;;;;;18.25;36.71;99650.25;2620711;54;20031;-63
2022/05/06 09:44:12;;;;;;;4.95;2.25;;;;;;;18.13;35.90;99648.50;2620408;39;20446;-64
2022/05/06 09:46:41;;;;;;;5.20;2.10;;;;;;;18.08;35.83;99651.81;2619018;54;20037;-64
2022/05/06 09:49:11;;;;;;;4.70;2.75;;;;;;;18.09;34.73;99648.13;2618112;54;20038;-64
2022/05/06 09:52:13;;;;;;;2.13;1.83;;;;;;;18.00;36.18;99642.25;2618857;39;20442;-66
2022/05/06 09:54:44;;;;;;;2.80;2.58;;;;;;;18.17;36.06;99642.50;2618639;54;20042;-65
2022/05/06 09:57:16;;;;;;;4.03;2.22;;;;;;;18.36;35.47;99637.94;2618089;54;20031;-65
2022/05/06 09:59:45;;;;;;;4.85;2.50;;;;;;;18.39;34.48;99637.53;2619100;54;20038;-65
2022/05/06 10:02:15;;;;;;;5.43;2.47;;;;;;;18.43;34.76;99644.06;2618250;54;20061;-65
2022/05/06 10:04:47;;;;;;;4.90;2.40;;;;;;;18.41;34.80;99648.00;2618339;54;20082;-65
2022/05/06 10:07:20;;;;;;;4.10;2.72;;;;;;;18.33;35.09;99651.81;2618183;54;20068;-64
2022/05/06 10:09:56;;;;;;;4.32;2.40;;;;;;;18.26;35.53;99643.84;2618609;54;20034;-64
2022/05/06 10:12:28;;;;;;;3.35;2.67;;;;;;;18.22;36.50;99639.97;2617920;54;20029;-64
2022/05/06 10:14:58;;;;;;;3.88;2.45;;;;;;;18.36;35.96;99637.13;2617727;47;20065;-64
2022/05/06 10:17:51;;;;;;;4.40;2.65;;;;;;;18.33;36.05;99633.06;2618299;54;20039;-67
2022/05/06 10:20:51;;;;;;;6.75;2.38;;;;;;;18.42;34.56;99633.59;2625122;39;20429;-67
2022/05/06 10:23:24;;;;;;;5.00;2.65;;;;;;;18.40;34.52;99631.13;2623178;54;20085;-67
2022/05/06 10:25:55;;;;;;;4.88;2.80;;;;;;;18.60;34.86;99630.06;2623775;54;20034;-67
2022/05/06 10:34:27;;;;;;;5.50;3.25;;;;;;;18.38;35.22;99635.88;2623633;54;20034;-68
2022/05/06 10:37:00;;;;;;;6.97;3.30;;;;;;;18.44;35.50;99631.50;2623207;54;20027;-67
2022/05/06 10:39:39;;;;;;;4.20;2.53;;;;;;;18.51;36.19;99618.84;2623478;54;20042;-67
2022/05/06 10:42:10;;;;;;;3.08;2.38;;;;;;;18.52;35.28;99618.63;2619081;39;20411;-67
2022/05/06 10:44:41;;;;;;;5.72;2.83;;;;;;;18.62;35.91;99614.63;2617630;54;20030;-67
2022/05/06 10:47:41;;;;;;;4.15;2.83;;;;;;;18.70;35.56;99615.16;2616994;54;20042;-66
2022/05/06 10:50:19;;;;;;;5.93;3.38;;;;;;;18.70;34.57;99619.69;2617361;54;20030;-66
2022/05/06 10:52:49;;;;;;;4.60;3.42;;;;;;;18.61;34.90;99621.00;2617494;54;20038;-67
2022/05/06 10:55:24;;;;;;;4.97;3.17;;;;;;;18.48;35.32;99611.25;2617665;54;20064;-67
2022/05/06 10:57:59;;;;;;;3.35;2.70;;;;;;;18.70;34.81;99608.97;2617203;54;20026;-66
2022/05/06 11:00:32;;;;;;;4.97;3.15;;;;;;;18.73;34.91;99600.47;2617527;54;20064;-67
2022/05/06 11:03:01;;;;;;;6.47;3.42;;;;;;;18.84;34.30;99601.56;2617396;39;20416;-67
2022/05/06 11:05:33;;;;;;;4.80;3.15;;;;;;;18.94;34.71;99608.03;2617683;54;20042;-66
2022/05/06 11:08:05;;;;;;;3.35;2.80;;;;;;;19.01;34.09;99599.88;2617298;54;20027;-67
2022/05/06 11:10:38;;;;;;;6.30;3.08;;;;;;;19.23;34.53;99602.88;2617598;54;20042;-67
2022/05/06 11:13:28;;;;;;;8.25;3.08;;;;;;;19.34;34.70;99599.38;2617754;54;20069;-66
2022/05/06 11:15:58;;;;;;;7.57;2.97;;;;;;;19.39;34.26;99604.06;2617049;54;20034;-67
2022/05/06 11:18:28;;;;;;;4.30;2.80;;;;;;;19.42;34.11;99600.91;2617432;54;20042;-66
2022/05/06 11:20:58;;;;;;;5.20;3.00;;;;;;;19.48;33.78;99605.38;2617155;47;20443;-66
2022/05/06 11:23:31;;;;;;;6.15;3.45;;;;;;;19.23;34.82;99605.56;2617009;47;20053;-66
2022/05/06 11:26:04;;;;;;;5.00;2.83;;;;;;;19.52;34.85;99603.88;2617616;54;20038;-66
2022/05/06 11:28:35;;;;;;;5.32;3.10;;;;;;;19.85;33.73;99597.97;2616627;47;20550;-66
2022/05/06 11:31:05;;;;;;;7.40;2.83;;;;;;;20.00;33.23;99597.47;2617594;54;20050;-65
2022/05/06 11:33:37;;;;;;;13.10;3.45;;;;;;;20.02;33.87;99595.38;2617529;31;20502;-65
2022/05/06 11:36:09;;;;;;;3.72;2.50;;;;;;;20.07;33.26;99592.81;2618433;54;20037;-66
2022/05/06 11:38:46;;;;;;;4.75;2.95;;;;;;;20.26;33.41;99588.13;2618567;39;20542;-67
2022/05/06 11:41:20;;;;;;;5.32;2.97;;;;;;;20.26;32.82;99588.13;2618369;54;20126;-67
2022/05/06 11:43:50;;;;;;;5.30;3.08;;;;;;;20.47;33.06;99575.91;2618303;39;20446;-66
2022/05/06 11:49:03;;;;;;;;;;;;;;;20.86;32.74;99574.28;2618128;54;20083;-66
2022/05/06 11:51:40;;;;;;;4.18;2.80;;;;;;;20.83;32.10;99582.00;2618084;47;19939;-66
2022/05/06 11:54:16;;;;;;;4.43;2.83;;;;;;;20.62;32.22;99570.88;2617846;47;20023;-66
2022/05/06 11:56:51;;;;;;;3.00;2.42;;;;;;;20.58;32.40;99572.41;2618677;54;20059;-68
2022/05/06 11:59:22;;;;;;;4.70;2.88;;;;;;;20.58;32.35;99567.03;2618309;54;20030;-67
2022/05/06 12:01:52;;;;;;;3.73;2.80;;;;;;;20.72;32.37;99554.13;2618504;54;20038;-66
2022/05/06 12:04:32;;;;;;;5.63;2.55;;;;;;;20.77;32.58;99563.09;2618812;54;20042;-66
2022/05/06 12:07:01;;;;;;;5.70;3.00;;;;;;;20.65;32.14;99565.00;2618205;54;20033;-66
2022/05/06 12:09:31;;;;;;;4.63;2.67;;;;;;;20.39;32.38;99562.88;2618457;54;20042;-66
2022/05/06 12:12:08;;;;;;;5.88;2.70;;;;;;;20.28;32.90;99562.66;2618707;54;20550;-66
2022/05/06 12:14:38;;;;;;;9.68;3.10;;;;;;;20.50;33.41;99567.44;2618285;39;20430;-66
2022/05/06 12:17:13;;;;;;;3.67;2.65;;;;;;;20.37;33.96;99559.59;2617783;54;20045;-66
2022/05/06 12:19:45;;;;;;;2.78;2.10;;;;;;;20.32;33.20;99559.50;2617539;54;20042;-66
2022/05/06 12:22:16;;;;;;;2.85;2.20;;;;;;;20.11;34.24;99563.63;2618165;39;20454;-66
2022/05/06 12:24:48;;;;;;;5.07;2.63;;;;;;;20.04;34.08;99564.59;2618173;54;20556;-66
2022/05/06 12:27:28;;;;;;;3.25;2.90;;;;;;;20.32;33.41;99559.50;2617858;54;20042;-66
2022/05/06 12:30:01;;;;;;;2.60;2.17;;;;;;;20.50;33.28;99557.50;2617738;46;20030;-66
2022/05/06 12:32:31;;;;;;;4.50;2.45;;;;;;;20.67;33.11;99549.47;2620276;54;20038;-66
2022/05/06 12:35:07;;;;;;;5.10;2.58;;;;;;;20.76;32.92;99555.28;2622056;54;20053;-66
2022/05/06 12:37:38;;;;;;;4.55;3.20;;;;;;;20.56;32.73;99549.53;2618027;39;20434;-66
2022/05/06 12:40:09;;;;;;;5.43;3.17;;;;;;;20.34;33.74;99560.09;2618277;54;20061;-66
2022/05/06 12:42:41;;;;;;;3.13;2.45;;;;;;;20.42;33.95;99543.59;2618036;54;20037;-66